Time;durP1;ratioP1;P1;durP2;ratioP2;P2;SDS_P1;SDS_P2;PMS_P1;PMS_P2;Temp;Humidity;BMP_temperature;BMP_pressure;BME280_temperature;BME280_humidity;BME280_pressure;Samples;Min_cycle;Max_cycle;Signal;HPM_P1;HPM_P2
2022/02/22 00:01:09;;;;;;;34.45;5.63;;;;;;;5.65;100.00;101859.34;5049311;28;20024;-76
2022/02/22 00:03:36;;;;;;;38.45;6.15;;;;;;;5.62;100.00;101853.97;5052809;28;20077;-76
2022/02/22 00:06:02;;;;;;;41.05;7.72;;;;;;;5.63;100.00;101845.28;5040726;28;20546;-76
2022/02/22 00:08:28;;;;;;;25.55;5.15;;;;;;;5.58;100.00;101859.00;5054031;28;20048;-76
2022/02/22 00:10:53;;;;;;;30.30;4.65;;;;;;;5.55;100.00;101863.19;5064916;28;20428;-75
2022/02/22 00:13:18;;;;;;;38.58;4.50;;;;;;;5.58;100.00;101872.06;5055661;28;20036;-75
2022/02/22 00:15:44;;;;;;;33.42;4.82;;;;;;;5.61;100.00;101871.31;5061613;28;20141;-76
2022/02/22 00:18:09;;;;;;;49.63;6.07;;;;;;;5.61;100.00;101876.53;5045710;28;20115;-76
2022/02/22 00:20:34;;;;;;;40.70;4.80;;;;;;;5.61;100.00;101889.59;5041263;28;20033;-75
2022/02/22 00:23:01;;;;;;;33.95;4.53;;;;;;;5.57;100.00;101880.72;5044229;28;20027;-75
2022/02/22 00:25:26;;;;;;;29.50;4.10;;;;;;;5.57;100.00;101874.59;5053505;28;20103;-75
2022/02/22 00:27:52;;;;;;;41.70;4.80;;;;;;;5.56;100.00;101888.44;5048016;28;20112;-75
2022/02/22 00:30:18;;;;;;;33.65;4.72;;;;;;;5.60;100.00;101900.84;5065537;28;20478;-75
2022/02/22 00:32:43;;;;;;;35.33;4.28;;;;;;;5.64;100.00;101901.91;5043896;28;20029;-75
2022/02/22 00:35:11;;;;;;;41.58;5.57;;;;;;;5.60;100.00;101895.63;5041255;28;20028;-76
2022/02/22 00:37:37;;;;;;;30.65;4.47;;;;;;;5.56;100.00;101888.44;5070812;28;20142;-76
2022/02/22 00:40:05;;;;;;;38.03;5.60;;;;;;;5.53;100.00;101901.34;5057909;28;20552;-76
2022/02/22 00:42:30;;;;;;;39.95;4.53;;;;;;;5.55;100.00;101912.78;5062808;28;20036;-76
2022/02/22 00:44:56;;;;;;;42.85;5.47;;;;;;;5.54;100.00;101918.81;5045080;28;20025;-75
2022/02/22 00:47:21;;;;;;;32.35;4.10;;;;;;;5.56;100.00;101920.69;5057347;28;20392;-76
2022/02/22 00:49:46;;;;;;;37.63;5.38;;;;;;;5.54;100.00;101911.88;5068381;28;20370;-76
2022/02/22 00:52:12;;;;;;;36.50;3.83;;;;;;;5.50;100.00;101909.03;5049253;28;20384;-76
2022/02/22 00:54:37;;;;;;;38.00;3.60;;;;;;;5.46;100.00;101922.72;5022565;28;20065;-76
2022/02/22 00:57:03;;;;;;;30.33;4.57;;;;;;;5.44;100.00;101921.72;5065031;28;20036;-75
2022/02/22 00:59:28;;;;;;;43.05;5.93;;;;;;;5.39;100.00;101918.88;5067536;28;20031;-76
2022/02/22 01:01:53;;;;;;;38.40;5.60;;;;;;;5.33;100.00;101909.00;5071669;28;20044;-76
2022/02/22 01:04:19;;;;;;;40.75;4.78;;;;;;;5.30;100.00;101906.19;5065673;28;20480;-76
2022/02/22 01:06:44;;;;;;;29.73;4.03;;;;;;;5.28;100.00;101918.28;5063798;28;20032;-76
2022/02/22 01:09:13;;;;;;;28.95;4.22;;;;;;;5.29;100.00;101914.88;5038665;28;20029;-76
2022/02/22 01:11:39;;;;;;;32.47;4.40;;;;;;;5.30;100.00;101906.19;5042900;28;20082;-76
2022/02/22 01:14:04;;;;;;;31.73;3.92;;;;;;;5.36;100.00;101905.66;5062114;28;20028;-76
2022/02/22 01:16:29;;;;;;;35.05;5.05;;;;;;;5.34;100.00;101913.38;5080756;28;20029;-75
2022/02/22 01:18:55;;;;;;;41.03;4.68;;;;;;;5.36;100.00;101921.31;5069483;28;20064;-77
2022/02/22 01:21:20;;;;;;;34.90;5.05;;;;;;;5.37;100.00;101933.53;5070497;28;20055;-75
2022/02/22 01:23:46;;;;;;;27.83;3.55;;;;;;;5.36;100.00;101942.19;5064931;28;20033;-75
2022/02/22 01:26:11;;;;;;;34.00;4.32;;;;;;;5.34;100.00;101939.47;5060449;28;20358;-76
2022/02/22 01:28:36;;;;;;;42.42;4.65;;;;;;;5.33;100.00;101935.09;5072007;28;20117;-76
2022/02/22 01:31:02;;;;;;;30.98;3.83;;;;;;;5.33;100.00;101940.31;5054063;28;20544;-75
2022/02/22 01:33:28;;;;;;;38.00;5.60;;;;;;;5.31;100.00;101931.50;5052023;28;20369;-76
2022/02/22 01:35:53;;;;;;;39.83;4.85;;;;;;;5.28;100.00;101931.31;5040768;28;20477;-76
2022/02/22 01:38:18;;;;;;;31.60;4.88;;;;;;;5.26;100.00;101932.94;5046700;28;20028;-76
2022/02/22 01:40:44;;;;;;;30.60;4.03;;;;;;;5.27;100.00;101931.25;5056556;28;20032;-76
2022/02/22 01:43:09;;;;;;;35.75;6.10;;;;;;;5.24;100.00;101931.97;5055038;28;20028;-76
2022/02/22 01:45:36;;;;;;;36.78;6.00;;;;;;;5.21;100.00;101935.31;5066464;28;20028;-76
2022/02/22 01:48:03;;;;;;;22.52;4.07;;;;;;;5.18;100.00;101934.22;5035737;28;20107;-75
2022/02/22 01:50:28;;;;;;;38.95;4.00;;;;;;;5.18;100.00;101942.97;5044110;28;20040;-76
2022/02/22 01:52:54;;;;;;;32.97;4.28;;;;;;;5.21;100.00;101947.47;5044401;28;20028;-77
2022/02/22 01:55:20;;;;;;;34.00;4.25;;;;;;;5.22;100.00;101944.00;5044305;28;20029;-75
2022/02/22 01:57:46;;;;;;;29.45;3.88;;;;;;;5.20;100.00;101953.50;5047779;28;20060;-76
2022/02/22 02:00:13;;;;;;;38.42;4.25;;;;;;;5.17;100.00;101949.00;5034516;28;20029;-76
2022/02/22 02:02:39;;;;;;;38.15;5.10;;;;;;;5.17;100.00;101955.94;5027472;28;20071;-75
2022/02/22 02:05:05;;;;;;;33.67;4.22;;;;;;;5.16;100.00;101955.00;5038907;28;20107;-76
2022/02/22 02:07:31;;;;;;;28.02;3.58;;;;;;;5.15;100.00;101947.09;5041710;28;20454;-76
2022/02/22 02:09:56;;;;;;;29.52;4.78;;;;;;;5.15;100.00;101947.09;5028418;28;20033;-76
2022/02/22 02:12:22;;;;;;;35.92;4.60;;;;;;;5.16;100.00;101959.34;5043455;28;20065;-76
2022/02/22 02:14:47;;;;;;;39.17;4.72;;;;;;;5.18;100.00;101953.41;5043670;28;20128;-77
2022/02/22 02:17:12;;;;;;;32.88;3.47;;;;;;;5.17;100.00;101948.09;5032275;28;20021;-76
2022/02/22 02:19:40;;;;;;;23.90;3.33;;;;;;;5.15;100.00;101949.72;5046400;28;20499;-75
2022/02/22 02:22:06;;;;;;;30.05;4.25;;;;;;;5.15;100.00;101947.09;5020171;28;20030;-75
2022/02/22 02:24:31;;;;;;;27.83;3.90;;;;;;;5.18;100.00;101947.28;5043047;28;20071;-76
2022/02/22 02:26:57;;;;;;;25.20;3.85;;;;;;;5.18;100.00;101952.47;5043180;28;20036;-76
2022/02/22 02:29:24;;;;;;;26.75;3.97;;;;;;;5.20;100.00;101946.53;5029639;28;20045;-76
2022/02/22 02:31:51;;;;;;;32.53;4.18;;;;;;;5.22;100.00;101949.22;5016903;28;20051;-76
2022/02/22 02:34:19;;;;;;;36.33;5.38;;;;;;;5.24;100.00;101939.78;5049982;28;20038;-76
2022/02/22 02:36:44;;;;;;;31.67;4.13;;;;;;;5.22;100.00;101939.72;5048518;28;20500;-76
2022/02/22 02:39:11;;;;;;;30.90;3.25;;;;;;;5.24;100.00;101943.28;5034538;28;20116;-76
2022/02/22 02:41:37;;;;;;;27.27;4.35;;;;;;;5.24;100.00;101937.19;5040964;28;20055;-76
2022/02/22 02:44:06;;;;;;;36.05;5.03;;;;;;;5.25;100.00;101939.00;5036302;28;20041;-75
2022/02/22 02:46:32;;;;;;;43.83;4.35;;;;;;;5.24;100.00;101943.28;5045217;28;20408;-76
2022/02/22 02:48:57;;;;;;;32.17;4.22;;;;;;;5.26;100.00;101934.66;5041833;28;20049;-77
2022/02/22 02:51:23;;;;;;;31.80;3.40;;;;;;;5.27;100.00;101929.53;5061064;28;20056;-76
2022/02/22 02:53:53;;;;;;;25.35;3.63;;;;;;;5.29;100.00;101937.44;5058315;28;20035;-76
2022/02/22 02:56:24;;;;;;;30.15;3.85;;;;;;;5.29;100.00;101935.75;5058082;28;20082;-76
2022/02/22 02:58:51;;;;;;;30.83;3.95;;;;;;;5.25;100.00;101941.59;5070029;28;20368;-75
2022/02/22 03:01:17;;;;;;;39.13;4.10;;;;;;;5.25;100.00;101933.78;5040175;28;20024;-75
2022/02/22 03:03:42;;;;;;;36.83;3.72;;;;;;;5.25;100.00;101933.78;5064668;28;20380;-75
2022/02/22 03:06:08;;;;;;;29.55;5.05;;;;;;;5.27;100.00;101936.47;5037793;28;20020;-76
2022/02/22 03:08:33;;;;;;;27.20;4.13;;;;;;;5.25;100.00;101949.44;5058209;28;20031;-76
2022/02/22 03:10:58;;;;;;;25.92;3.67;;;;;;;5.22;100.00;101954.44;5060632;28;20024;-76
2022/02/22 03:13:24;;;;;;;34.70;6.60;;;;;;;5.21;100.00;101947.47;5058190;28;20028;-76
2022/02/22 03:15:49;;;;;;;23.33;3.22;;;;;;;5.20;100.00;101946.53;5065541;28;20029;-75
2022/02/22 03:18:14;;;;;;;23.95;4.00;;;;;;;5.20;100.00;101941.31;5045556;28;20065;-75
2022/02/22 03:20:40;;;;;;;23.85;2.72;;;;;;;5.17;100.00;101946.38;5053973;28;20069;-76
2022/02/22 03:23:05;;;;;;;29.00;4.43;;;;;;;5.14;100.00;101945.28;5040896;28;20191;-76
2022/02/22 03:25:31;;;;;;;28.17;3.90;;;;;;;5.12;100.00;101933.91;5058985;28;20075;-76
2022/02/22 03:27:58;;;;;;;30.20;4.72;;;;;;;5.10;100.00;101940.72;5044642;28;20036;-76
2022/02/22 03:30:24;;;;;;;40.83;4.18;;;;;;;5.10;100.00;101943.34;5068130;28;20024;-75
2022/02/22 03:32:49;;;;;;;36.25;4.78;;;;;;;5.07;100.00;101936.22;5041114;28;20481;-76
2022/02/22 03:35:14;;;;;;;35.35;4.40;;;;;;;5.09;100.00;101936.31;5055875;28;20032;-75
2022/02/22 03:37:40;;;;;;;30.80;3.63;;;;;;;5.09;100.00;101936.31;5050302;28;20033;-76
2022/02/22 03:40:06;;;;;;;31.05;4.40;;;;;;;5.07;100.00;101937.16;5034221;28;20366;-76
2022/02/22 03:42:31;;;;;;;32.88;3.67;;;;;;;5.10;100.00;101944.25;5048899;28;20104;-75
2022/02/22 03:44:57;;;;;;;22.00;2.58;;;;;;;5.11;100.00;101939.91;5066176;28;20033;-76
2022/02/22 03:47:22;;;;;;;20.23;2.92;;;;;;;5.11;100.00;101938.19;5072856;28;20052;-76
2022/02/22 03:49:47;;;;;;;28.98;3.97;;;;;;;5.10;100.00;101945.94;5047806;28;20021;-76
2022/02/22 03:52:13;;;;;;;22.40;2.83;;;;;;;5.06;100.00;101942.28;5068631;28;20017;-75
2022/02/22 03:54:38;;;;;;;27.15;3.22;;;;;;;5.05;100.00;101940.47;5052450;28;20472;-76
2022/02/22 03:57:03;;;;;;;35.85;4.72;;;;;;;5.04;100.00;101941.28;5044781;28;20033;-75
2022/02/22 03:59:29;;;;;;;29.17;3.00;;;;;;;5.01;100.00;101943.72;5078938;28;20088;-76
2022/02/22 04:01:55;;;;;;;25.55;3.10;;;;;;;4.98;100.00;101941.84;5070911;28;20449;-75
2022/02/22 04:04:21;;;;;;;33.67;3.78;;;;;;;4.95;100.00;101944.28;5062249;28;20024;-76
2022/02/22 04:06:46;;;;;;;24.85;3.50;;;;;;;4.93;100.00;101947.59;5070716;28;20119;-76
2022/02/22 04:09:12;;;;;;;22.33;3.08;;;;;;;4.88;100.00;101952.53;5064709;28;20504;-75
2022/02/22 04:11:37;;;;;;;28.65;3.90;;;;;;;4.81;100.00;101946.06;5046410;28;20473;-76
2022/02/22 04:14:02;;;;;;;24.58;3.47;;;;;;;4.83;100.00;101953.97;5057277;28;20357;-76
2022/02/22 04:16:28;;;;;;;36.03;4.18;;;;;;;4.77;100.00;101948.41;5054417;28;20032;-75
2022/02/22 04:18:53;;;;;;;31.52;3.78;;;;;;;4.74;100.00;101949.13;5069463;28;20043;-76
2022/02/22 04:21:18;;;;;;;19.95;3.70;;;;;;;4.73;100.00;101958.69;5066306;28;20024;-76
2022/02/22 04:23:44;;;;;;;28.90;2.95;;;;;;;4.72;100.00;101956.88;5063801;28;20025;-75
2022/02/22 04:26:09;;;;;;;28.83;3.30;;;;;;;4.69;100.00;101951.50;5061859;28;20025;-77
2022/02/22 04:28:35;;;;;;;16.70;3.25;;;;;;;4.73;100.00;101947.34;5055231;28;20029;-77
2022/02/22 04:31:00;;;;;;;29.58;3.85;;;;;;;4.69;100.00;101953.19;5047878;28;20056;-76
2022/02/22 04:33:25;;;;;;;30.65;4.25;;;;;;;4.69;100.00;101947.97;5066977;28;20066;-76
2022/02/22 04:35:51;;;;;;;21.42;3.92;;;;;;;4.70;100.00;101944.56;5075473;28;20448;-76
2022/02/22 04:38:16;;;;;;;30.52;3.45;;;;;;;4.64;100.00;101944.19;5048634;28;20033;-75
2022/02/22 04:40:42;;;;;;;32.65;4.00;;;;;;;4.59;100.00;101949.16;5058356;28;20032;-76
2022/02/22 04:43:07;;;;;;;26.95;3.17;;;;;;;4.60;100.00;101945.75;5061795;28;20062;-77
2022/02/22 04:45:32;;;;;;;23.45;3.78;;;;;;;4.62;100.00;101953.66;5061492;28;20032;-75
2022/02/22 04:47:58;;;;;;;18.88;3.78;;;;;;;4.69;100.00;101953.19;5043965;28;20148;-76
2022/02/22 04:50:24;;;;;;;29.50;3.63;;;;;;;4.69;100.00;101956.72;5046031;28;20097;-76
2022/02/22 04:52:49;;;;;;;34.97;3.28;;;;;;;4.74;100.00;101964.78;5049114;28;20171;-76
2022/02/22 04:55:15;;;;;;;30.23;2.67;;;;;;;4.83;100.00;101957.50;5024839;28;20036;-76
2022/02/22 04:57:40;;;;;;;27.40;2.80;;;;;;;4.86;100.00;101954.19;5028063;28;20370;-75
2022/02/22 05:00:10;;;;;;;23.17;3.50;;;;;;;4.87;100.00;101962.09;5035631;28;20036;-75
2022/02/22 05:02:35;;;;;;;29.63;3.20;;;;;;;4.89;100.00;101959.56;5046910;28;20021;-76
2022/02/22 05:05:01;;;;;;;26.75;4.20;;;;;;;4.91;100.00;101952.75;5035417;28;20435;-75
2022/02/22 05:07:26;;;;;;;23.77;3.08;;;;;;;5.09;100.00;101955.50;5054331;28;20036;-77
2022/02/22 05:09:51;;;;;;;30.48;4.22;;;;;;;5.22;100.00;101954.44;5036835;28;20031;-75
2022/02/22 05:12:17;;;;;;;31.17;3.63;;;;;;;5.33;100.00;101947.22;5042988;28;20366;-75
2022/02/22 05:14:42;;;;;;;25.25;3.17;;;;;;;5.39;100.00;101938.03;5046740;28;20129;-75
2022/02/22 05:17:08;;;;;;;15.82;2.80;;;;;;;5.44;100.00;101947.81;5043478;28;20032;-75
2022/02/22 05:19:33;;;;;;;32.83;3.25;;;;;;;5.50;100.00;101930.78;5047557;28;20080;-76
2022/02/22 05:21:58;;;;;;;26.45;3.42;;;;;;;5.54;100.00;101932.75;5026396;28;20427;-76
2022/02/22 05:24:23;;;;;;;24.08;3.28;;;;;;;5.57;100.00;101929.41;5051904;28;20037;-75
2022/02/22 05:26:49;;;;;;;19.50;2.75;;;;;;;5.57;100.00;101932.03;5025771;28;20025;-75
2022/02/22 05:29:14;;;;;;;26.58;3.25;;;;;;;5.58;100.00;101928.59;5034802;28;20481;-76
2022/02/22 05:31:40;;;;;;;36.90;4.40;;;;;;;5.59;100.00;101925.19;5025971;28;20026;-75
2022/02/22 05:34:05;;;;;;;20.85;3.65;;;;;;;5.60;100.00;101916.50;5047905;28;20069;-76
2022/02/22 05:36:31;;;;;;;19.23;3.92;;;;;;;5.67;100.00;101917.75;5036220;28;20492;-76
2022/02/22 05:38:56;;;;;;;26.70;3.83;;;;;;;5.72;100.00;101906.75;5037120;28;20485;-75
2022/02/22 05:41:22;;;;;;;26.73;3.58;;;;;;;5.69;100.00;101906.56;5044114;28;20025;-76
2022/02/22 05:43:48;;;;;;;23.90;3.20;;;;;;;5.69;100.00;101921.34;5032238;28;20079;-76
2022/02/22 05:46:14;;;;;;;29.98;4.35;;;;;;;5.67;100.00;101909.91;5043912;28;20100;-76
2022/02/22 05:48:41;;;;;;;25.35;3.60;;;;;;;5.62;100.00;101914.91;5051308;28;20128;-76
2022/02/22 05:51:06;;;;;;;31.48;4.05;;;;;;;5.63;100.00;101908.88;5061843;28;20060;-76
2022/02/22 05:53:33;;;;;;;22.15;3.53;;;;;;;5.58;100.00;101907.72;5060042;28;20405;-76
2022/02/22 05:55:59;;;;;;;26.08;4.05;;;;;;;5.51;100.00;101903.00;5072251;28;20039;-76
2022/02/22 05:58:24;;;;;;;25.52;4.20;;;;;;;5.50;100.00;101903.78;5053315;28;20492;-76
2022/02/22 06:00:49;;;;;;;36.22;3.67;;;;;;;5.42;100.00;101900.75;5044280;28;20028;-76
2022/02/22 06:03:15;;;;;;;31.05;4.72;;;;;;;5.40;100.00;101897.19;5068059;28;20052;-76
2022/02/22 06:05:40;;;;;;;27.15;4.05;;;;;;;5.36;100.00;101892.63;5052785;28;20220;-76
2022/02/22 06:08:05;;;;;;;26.77;3.72;;;;;;;5.30;100.00;101895.75;5052437;28;20028;-74
2022/02/22 06:10:31;;;;;;;40.25;3.88;;;;;;;5.22;100.00;101897.03;5062553;28;20017;-75
2022/02/22 06:12:56;;;;;;;31.73;4.75;;;;;;;5.21;100.00;101893.56;5061303;28;20032;-75
2022/02/22 06:15:22;;;;;;;28.90;4.07;;;;;;;5.13;100.00;101886.09;5039920;28;20408;-75
2022/02/22 06:17:48;;;;;;;36.28;4.22;;;;;;;5.09;100.00;101894.56;5061114;28;20098;-75
2022/02/22 06:20:13;;;;;;;23.58;4.43;;;;;;;5.06;100.00;101882.28;5060186;28;20059;-75
2022/02/22 06:22:40;;;;;;;32.72;4.90;;;;;;;5.01;100.00;101884.63;5053254;28;20025;-74
2022/02/22 06:25:08;;;;;;;30.45;4.65;;;;;;;4.97;100.00;101880.03;5029399;28;20031;-79
2022/02/22 06:27:48;;;;;;;30.52;5.50;;;;;;;4.98;100.00;101880.91;5056472;28;20115;-77
2022/02/22 06:30:13;;;;;;;35.10;4.47;;;;;;;4.96;100.00;101875.63;5058490;28;20480;-77
2022/02/22 06:32:39;;;;;;;40.05;3.78;;;;;;;4.97;100.00;101867.00;5051312;28;20027;-78
2022/02/22 06:35:05;;;;;;;27.08;3.97;;;;;;;4.91;100.00;101864.06;5058986;28;20021;-76
2022/02/22 06:37:30;;;;;;;23.30;3.97;;;;;;;4.91;100.00;101866.66;5048440;28;20028;-78
2022/02/22 06:39:56;;;;;;;30.88;5.40;;;;;;;4.91;100.00;101869.28;5054728;28;20024;-78
2022/02/22 06:42:21;;;;;;;36.80;5.28;;;;;;;4.97;100.00;101874.81;5049012;28;20112;-77
2022/02/22 06:44:46;;;;;;;43.38;5.28;;;;;;;4.98;100.00;101881.84;5067092;28;20065;-78
2022/02/22 06:47:12;;;;;;;39.55;5.85;;;;;;;5.02;100.00;101873.38;5054007;28;20419;-77
2022/02/22 06:49:37;;;;;;;30.25;4.53;;;;;;;5.07;100.00;101871.94;5052863;28;20071;-77
2022/02/22 06:52:02;;;;;;;39.53;4.38;;;;;;;5.11;100.00;101872.09;5053128;28;20025;-77
2022/02/22 06:54:29;;;;;;;28.83;3.80;;;;;;;5.13;100.00;101862.63;5041581;28;20138;-77
2022/02/22 06:56:55;;;;;;;23.95;4.75;;;;;;;5.14;100.00;101856.59;5041134;28;20048;-73
2022/02/22 06:59:21;;;;;;;28.27;3.95;;;;;;;5.13;100.00;101863.53;5041284;28;20021;-74
2022/02/22 07:01:47;;;;;;;36.63;4.40;;;;;;;5.17;100.00;101860.28;5046323;28;20135;-75
2022/02/22 07:04:16;;;;;;;29.88;4.75;;;;;;;5.25;100.00;101865.94;5065292;28;20023;-78
2022/02/22 07:06:41;;;;;;;31.23;4.13;;;;;;;5.32;100.00;101865.44;5038017;28;20040;-79
2022/02/22 07:09:06;;;;;;;35.78;5.70;;;;;;;5.33;100.00;101854.19;5055916;28;20058;-78
2022/02/22 07:11:32;;;;;;;32.65;4.60;;;;;;;5.43;100.00;101850.34;5064137;28;20047;-77
2022/02/22 07:13:57;;;;;;;32.70;4.15;;;;;;;5.46;100.00;101840.06;5053159;28;20036;-77
2022/02/22 07:16:23;;;;;;;32.28;4.40;;;;;;;5.46;100.00;101833.97;5050943;28;20029;-78
2022/02/22 07:18:48;;;;;;;29.75;4.45;;;;;;;5.52;100.00;101829.97;5046507;28;20032;-77
2022/02/22 07:21:14;;;;;;;32.03;3.95;;;;;;;5.58;100.00;101829.38;5046475;28;20025;-77
2022/02/22 07:23:39;;;;;;;36.17;5.22;;;;;;;5.59;100.00;101825.97;5051124;28;20503;-77
2022/02/22 07:26:05;;;;;;;41.97;4.82;;;;;;;5.58;100.00;101817.22;5046807;28;20037;-77
2022/02/22 07:28:30;;;;;;;32.92;4.65;;;;;;;5.66;100.00;101816.75;5067104;28;20617;-76
2022/02/22 07:30:55;;;;;;;30.42;4.45;;;;;;;5.66;100.00;101812.41;5057366;28;20063;-77
2022/02/22 07:33:21;;;;;;;33.58;5.45;;;;;;;5.72;100.00;101815.34;5055065;28;20024;-77
2022/02/22 07:35:46;;;;;;;29.92;5.90;;;;;;;5.79;100.00;101813.03;5065253;28;20077;-77
2022/02/22 07:38:11;;;;;;;39.08;4.63;;;;;;;5.83;100.00;101807.16;5066550;28;20044;-79
2022/02/22 07:40:37;;;;;;;33.97;4.57;;;;;;;5.88;100.00;101803.97;5071916;28;20020;-78
2022/02/22 07:43:03;;;;;;;36.03;6.68;;;;;;;5.94;100.00;101808.63;5037448;28;20032;-78
2022/02/22 07:45:28;;;;;;;35.55;6.60;;;;;;;5.91;100.00;101813.66;5061040;28;20028;-76
2022/02/22 07:47:53;;;;;;;27.55;4.72;;;;;;;5.94;100.00;101811.25;5067196;28;20048;-76
2022/02/22 07:50:19;;;;;;;35.10;5.85;;;;;;;5.98;100.00;101797.53;5064417;28;20063;-76
2022/02/22 07:52:45;;;;;;;30.10;5.40;;;;;;;6.01;100.00;101800.31;5066943;28;20397;-76
2022/02/22 07:55:10;;;;;;;31.73;5.50;;;;;;;6.08;100.00;101802.41;5070325;28;20031;-77
2022/02/22 07:57:36;;;;;;;31.92;5.07;;;;;;;6.08;100.00;101797.16;5059186;28;20037;-75
2022/02/22 08:00:03;;;;;;;30.48;6.53;;;;;;;6.15;100.00;101802.72;5067553;28;20052;-76
2022/02/22 08:02:28;;;;;;;32.25;5.93;;;;;;;6.24;100.00;101787.50;5059871;28;20024;-76
2022/02/22 08:04:54;;;;;;;31.90;5.85;;;;;;;6.30;100.00;101790.41;5068061;28;20028;-75
2022/02/22 08:07:20;;;;;;;34.50;6.00;;;;;;;6.36;100.00;101792.41;5067686;28;20021;-75
2022/02/22 08:09:46;;;;;;;37.95;5.97;;;;;;;6.38;100.00;101791.66;5030731;28;20136;-76
2022/02/22 08:12:12;;;;;;;42.65;6.43;;;;;;;6.46;100.00;101780.69;5038362;28;20029;-76
2022/02/22 08:14:37;;;;;;;40.42;6.25;;;;;;;6.45;100.00;101769.34;5033522;28;20460;-75
2022/02/22 08:17:03;;;;;;;32.55;6.55;;;;;;;6.52;100.00;101763.56;5045180;28;20452;-75
2022/02/22 08:19:29;;;;;;;38.22;6.43;;;;;;;6.57;100.00;101766.44;5066967;28;20024;-74
2022/02/22 08:21:56;;;;;;;32.78;5.72;;;;;;;6.55;100.00;101749.75;5068094;28;20065;-75
2022/02/22 08:24:22;;;;;;;31.50;5.45;;;;;;;6.56;100.00;101748.94;5060483;28;20529;-74
2022/02/22 08:26:53;;;;;;;37.92;6.80;;;;;;;6.57;100.00;101750.72;5066272;28;20021;-75
2022/02/22 08:29:18;;;;;;;29.55;5.78;;;;;;;6.63;100.00;101740.53;5046034;28;20078;-75
2022/02/22 08:31:44;;;;;;;43.03;5.40;;;;;;;6.66;100.00;101739.78;5075174;28;20469;-75
2022/02/22 08:34:09;;;;;;;38.35;5.55;;;;;;;6.66;100.00;101727.63;5048530;28;20063;-75
2022/02/22 08:36:35;;;;;;;36.75;5.90;;;;;;;6.70;100.00;101731.28;5062255;28;20352;-75
2022/02/22 08:39:00;;;;;;;27.88;5.97;;;;;;;6.71;100.00;101722.59;5065400;28;20476;-74
2022/02/22 08:41:26;;;;;;;32.00;5.15;;;;;;;6.77;100.00;101717.69;5070550;28;20086;-75
2022/02/22 08:43:52;;;;;;;26.70;4.40;;;;;;;6.85;100.00;101711.06;5063038;28;20036;-74
2022/02/22 08:46:19;;;;;;;38.33;6.05;;;;;;;6.88;100.00;101710.31;5062449;28;20025;-75
2022/02/22 08:48:45;;;;;;;43.15;5.95;;;;;;;7.04;100.00;101707.56;5083266;28;20047;-75
2022/02/22 08:51:10;;;;;;;36.00;5.37;;;;;;;7.07;100.00;101710.31;5066912;28;20033;-74
2022/02/22 08:53:36;;;;;;;18.02;4.65;;;;;;;7.12;100.00;101694.78;5057451;28;20060;-73
2022/02/22 08:56:03;;;;;;;21.80;5.00;;;;;;;7.07;100.00;101702.47;5065870;28;20029;-73
2022/02/22 08:58:28;;;;;;;23.15;4.47;;;;;;;7.11;100.00;101682.56;5068542;28;20062;-73
2022/02/22 09:00:54;;;;;;;28.35;5.13;;;;;;;7.17;100.00;101684.56;5040945;28;20052;-74
2022/02/22 09:03:19;;;;;;;26.30;5.25;;;;;;;7.11;100.00;101684.25;5064018;28;20024;-73
2022/02/22 09:05:45;;;;;;;34.55;5.72;;;;;;;7.12;100.00;101667.75;5045179;28;20040;-74
2022/02/22 09:08:10;;;;;;;28.13;4.78;;;;;;;7.09;100.00;101676.34;5065144;28;20016;-73
2022/02/22 09:10:36;;;;;;;31.48;4.68;;;;;;;7.08;100.00;101662.38;5050695;28;20051;-73
2022/02/22 09:13:02;;;;;;;22.75;4.00;;;;;;;7.14;100.00;101664.38;5063214;28;20055;-74
2022/02/22 09:15:31;;;;;;;35.90;5.57;;;;;;;7.15;100.00;101675.72;5075696;28;20032;-74
2022/02/22 09:18:01;;;;;;;37.53;5.53;;;;;;;7.20;100.00;101664.66;5061024;28;20032;-73
2022/02/22 09:20:27;;;;;;;20.77;4.28;;;;;;;7.24;100.00;101663.97;5067060;28;20031;-74
2022/02/22 09:22:53;;;;;;;27.88;4.32;;;;;;;7.31;100.00;101662.50;5069077;28;20305;-73
2022/02/22 09:25:19;;;;;;;23.20;4.53;;;;;;;7.30;100.00;101665.94;5037412;28;20029;-74
2022/02/22 09:27:46;;;;;;;30.27;5.25;;;;;;;7.39;100.00;101657.56;5068234;28;20065;-74
2022/02/22 09:30:14;;;;;;;28.67;6.15;;;;;;;7.34;100.00;101678.34;5071875;28;20023;-73
2022/02/22 09:32:41;;;;;;;22.90;4.65;;;;;;;7.47;100.00;101686.72;5076893;28;20111;-72
2022/02/22 09:35:06;;;;;;;30.65;4.80;;;;;;;7.40;100.00;101689.03;5046547;28;20352;-72
2022/02/22 09:37:32;;;;;;;29.08;5.63;;;;;;;7.36;100.00;101692.38;5081119;28;20035;-73
2022/02/22 09:39:57;;;;;;;36.33;5.25;;;;;;;7.38;100.00;101677.63;5073865;28;20029;-73
2022/02/22 09:42:25;;;;;;;28.77;5.20;;;;;;;7.41;100.00;101676.88;5073259;28;20012;-73
2022/02/22 09:44:51;;;;;;;28.55;5.20;;;;;;;7.31;100.00;101659.88;5040985;28;20535;-73
2022/02/22 09:47:17;;;;;;;30.67;5.00;;;;;;;7.28;100.00;101664.97;5060590;28;20046;-73
2022/02/22 09:49:43;;;;;;;36.00;5.38;;;;;;;7.34;100.00;101659.09;5051970;28;20029;-73
2022/02/22 09:52:08;;;;;;;39.50;5.82;;;;;;;7.38;100.00;101671.47;5046782;28;20021;-73
2022/02/22 09:54:34;;;;;;;35.40;6.50;;;;;;;7.33;100.00;101673.03;5068942;28;20035;-74
2022/02/22 09:57:01;;;;;;;28.38;5.25;;;;;;;7.34;100.00;101662.63;5082239;28;20024;-74
2022/02/22 09:59:26;;;;;;;29.27;4.50;;;;;;;7.31;100.00;101659.88;5065885;28;20031;-73
2022/02/22 10:01:55;;;;;;;29.35;5.50;;;;;;;7.28;100.00;101664.97;5067711;28;20020;-74
2022/02/22 10:04:21;;;;;;;34.33;6.70;;;;;;;7.20;100.00;101654.19;5067729;28;20027;-73
2022/02/22 10:06:47;;;;;;;33.28;5.72;;;;;;;7.17;100.00;101658.38;5066751;28;20112;-73
2022/02/22 10:09:13;;;;;;;32.95;6.22;;;;;;;7.12;100.00;101657.28;5059929;28;20520;-73
2022/02/22 10:11:53;;;;;;;45.15;6.72;;;;;;;7.05;100.00;101650.88;5059982;28;20115;-73
2022/02/22 10:14:34;;;;;;;39.53;6.55;;;;;;;6.83;100.00;101642.06;5062246;28;20422;-73
2022/02/22 10:17:00;;;;;;;31.17;6.50;;;;;;;6.75;100.00;101636.53;5061502;28;20029;-73
2022/02/22 10:19:27;;;;;;;32.03;6.47;;;;;;;6.75;100.00;101639.13;5055071;28;20036;-74
2022/02/22 10:21:59;;;;;;;45.22;6.50;;;;;;;6.66;100.00;101625.63;5064713;28;20469;-74
2022/02/22 10:24:30;;;;;;;38.17;7.45;;;;;;;6.59;100.00;101613.09;5064075;28;20455;-74
2022/02/22 10:27:05;;;;;;;42.28;7.38;;;;;;;6.51;100.00;101614.47;5076090;28;20100;-74
2022/02/22 10:29:32;;;;;;;35.22;6.57;;;;;;;6.47;100.00;101613.44;5069365;28;20096;-75
2022/02/22 10:31:57;;;;;;;48.72;8.38;;;;;;;6.48;100.00;101601.25;5059006;28;20468;-74
2022/02/22 10:34:32;;;;;;;44.85;8.73;;;;;;;6.56;100.00;101618.19;5066670;28;20059;-73
2022/02/22 10:36:59;;;;;;;36.08;7.82;;;;;;;6.60;100.00;101604.44;5054459;28;20035;-72
2022/02/22 10:39:24;;;;;;;56.63;9.45;;;;;;;6.64;100.00;101616.81;5050070;28;20025;-74
2022/02/22 10:41:55;;;;;;;38.63;8.65;;;;;;;6.68;100.00;101623.09;5061020;28;20032;-73
2022/02/22 10:44:35;;;;;;;27.40;7.72;;;;;;;6.77;100.00;101627.81;5083054;28;20418;-75
2022/02/22 10:47:02;;;;;;;29.10;7.18;;;;;;;6.85;100.00;101626.44;5065744;28;20127;-73
2022/02/22 10:49:33;;;;;;;29.95;6.82;;;;;;;6.95;100.00;101620.78;5035366;28;20464;-74
2022/02/22 10:52:05;;;;;;;42.70;7.72;;;;;;;7.00;100.00;101611.44;5061399;28;20013;-74
2022/02/22 10:54:30;;;;;;;33.22;8.25;;;;;;;7.08;100.00;101599.56;5058718;28;20411;-74
2022/02/22 10:56:56;;;;;;;35.17;7.53;;;;;;;7.17;100.00;101599.06;5056531;28;20136;-73
2022/02/22 10:59:24;;;;;;;40.00;7.60;;;;;;;7.24;100.00;101584.50;5050944;28;20476;-75
2022/02/22 11:01:50;;;;;;;32.53;8.70;;;;;;;7.30;100.00;101592.63;5062538;28;20464;-74
2022/02/22 11:04:16;;;;;;;32.33;8.55;;;;;;;7.36;100.00;101584.13;5061608;28;20094;-74
2022/02/22 11:06:41;;;;;;;37.38;7.78;;;;;;;7.43;100.00;101591.41;5055983;28;20083;-74
2022/02/22 11:09:07;;;;;;;33.78;7.13;;;;;;;7.51;100.00;101594.34;5049725;28;20032;-75
2022/02/22 11:11:41;;;;;;;31.95;8.45;;;;;;;7.60;100.00;101597.34;5064393;28;20897;-74